createdAt,value
2023-04-16T00:03:15.373Z,2.85
2023-04-16T00:10:17.397Z,2.90
2023-04-16T00:17:19.289Z,3.10
2023-04-16T00:24:23.577Z,2.88
2023-04-16T00:31:35.839Z,3.15
2023-04-16T00:38:38.252Z,2.78
2023-04-16T00:45:40.061Z,4.10
2023-04-16T00:52:42.725Z,5.30
2023-04-16T00:59:44.493Z,6.25
2023-04-16T01:06:46.316Z,4.72
2023-04-16T01:13:48.125Z,4.10
2023-04-16T01:20:51.076Z,4.80
2023-04-16T01:27:55.055Z,4.10
2023-04-16T01:34:56.895Z,4.25
2023-04-16T01:41:58.649Z,4.43
2023-04-16T01:49:01.896Z,3.90
2023-04-16T01:56:03.893Z,4.43
2023-04-16T02:03:07.571Z,3.90
2023-04-16T02:10:10.694Z,4.47
2023-04-16T02:17:12.645Z,4.28
2023-04-16T02:24:14.552Z,3.72
2023-04-16T02:31:19.768Z,4.80
2023-04-16T02:38:21.799Z,4.50
2023-04-16T02:45:23.973Z,4.65
2023-04-16T02:52:25.876Z,4.40
2023-04-16T02:59:27.608Z,4.70
2023-04-16T03:06:29.316Z,4.97
2023-04-16T03:13:31.103Z,4.85
2023-04-16T03:20:33.088Z,5.38
2023-04-16T03:27:34.979Z,4.35
2023-04-16T03:34:37.332Z,4.15
2023-04-16T03:41:39.188Z,5.80
2023-04-16T03:48:41.003Z,5.18
2023-04-16T03:55:43.158Z,4.47
2023-04-16T04:02:45.117Z,3.17
2023-04-16T04:09:46.952Z,3.60
2023-04-16T04:16:48.794Z,3.38
2023-04-16T04:23:50.739Z,4.07
2023-04-16T04:30:52.493Z,3.70
2023-04-16T04:37:54.379Z,4.35
2023-04-16T04:44:56.312Z,3.95
2023-04-16T04:51:58.109Z,3.75
2023-04-16T04:58:59.874Z,4.43
2023-04-16T05:06:01.837Z,4.50
2023-04-16T05:13:03.875Z,5.28
2023-04-16T05:20:06.410Z,5.03
2023-04-16T05:27:08.143Z,5.65
2023-04-16T05:34:09.924Z,4.85
2023-04-16T05:41:11.724Z,5.20
2023-04-16T05:48:14.107Z,5.25
2023-04-16T05:55:15.980Z,5.30
2023-04-16T06:02:17.939Z,4.70
2023-04-16T06:09:19.973Z,4.85
2023-04-16T06:16:21.741Z,5.13
2023-04-16T06:23:23.514Z,5.40
2023-04-16T06:30:27.142Z,4.50
2023-04-16T06:37:29.047Z,4.60
2023-04-16T06:44:30.926Z,4.82
2023-04-16T06:51:32.856Z,4.47
2023-04-16T06:58:34.649Z,4.30
2023-04-16T07:05:36.574Z,4.53
2023-04-16T07:12:38.369Z,4.93
2023-04-16T07:19:40.171Z,4.47
2023-04-16T07:26:42.004Z,4.53
2023-04-16T07:33:44.143Z,5.15
2023-04-16T07:40:46.279Z,5.03
2023-04-16T07:47:48.070Z,5.18
2023-04-16T07:54:49.949Z,5.10
2023-04-16T08:01:53.203Z,5.50
2023-04-16T08:08:57.722Z,5.28
2023-04-16T08:15:59.615Z,5.80
2023-04-16T08:23:01.601Z,5.75
2023-04-16T08:30:03.798Z,5.40
2023-04-16T08:37:05.705Z,5.32
2023-04-16T08:44:12.883Z,5.40
2023-04-16T08:51:14.997Z,6.13
2023-04-16T08:58:21.353Z,5.78
2023-04-16T09:05:25.975Z,7.00
2023-04-16T09:12:28.110Z,7.30
2023-04-16T09:19:29.859Z,6.05
2023-04-16T09:26:31.977Z,5.28
2023-04-16T09:33:34.982Z,5.60
2023-04-16T09:40:36.872Z,22.55
2023-04-16T09:47:40.218Z,13.43
2023-04-16T09:54:51.574Z,15.07
2023-04-16T10:02:14.544Z,12.95
2023-04-16T10:09:19.034Z,9.55
2023-04-16T10:16:22.555Z,6.65
2023-04-16T10:23:24.451Z,6.30
2023-04-16T10:30:32.045Z,6.30
2023-04-16T10:37:34.189Z,7.78
2023-04-16T10:44:36.418Z,7.25
2023-04-16T10:51:38.420Z,6.80
2023-04-16T10:58:40.204Z,6.53
2023-04-16T11:05:47.049Z,7.45
2023-04-16T11:12:49.108Z,6.38
2023-04-16T11:19:50.942Z,7.45
2023-04-16T11:26:55.848Z,6.78
2023-04-16T11:33:58.019Z,6.72
2023-04-16T11:56:55.715Z,6.75
2023-04-16T12:04:02.444Z,7.35
2023-04-16T12:11:04.830Z,7.07
2023-04-16T12:18:08.268Z,6.93
2023-04-16T12:25:18.345Z,6.28
2023-04-16T12:32:22.548Z,6.93
2023-04-16T12:39:24.289Z,5.93
2023-04-16T12:46:26.137Z,5.82
2023-04-16T12:53:28.638Z,7.45
2023-04-16T13:00:30.736Z,7.72
2023-04-16T13:07:37.823Z,7.75
2023-04-16T13:14:39.579Z,7.35
2023-04-16T13:21:41.456Z,7.95
2023-04-16T13:28:43.253Z,7.88
2023-04-16T13:35:45.350Z,7.63
2023-04-16T13:42:48.022Z,8.45
2023-04-16T13:49:49.905Z,7.18
2023-04-16T13:56:51.999Z,7.60
2023-04-16T14:03:53.896Z,7.80
2023-04-16T14:10:59.289Z,7.63
2023-04-16T14:18:02.089Z,7.13
2023-04-16T14:25:04.175Z,6.55
2023-04-16T14:32:07.768Z,7.43
2023-04-16T14:39:10.818Z,7.05
2023-04-16T14:46:13.234Z,7.60
2023-04-16T14:53:17.338Z,7.45
2023-04-16T15:00:19.748Z,6.60
2023-04-16T15:07:22.874Z,7.85
2023-04-16T15:14:25.267Z,7.82
2023-04-16T15:21:28.260Z,8.13
2023-04-16T15:28:30.318Z,7.75
2023-04-16T15:35:32.328Z,8.05
2023-04-16T15:42:35.230Z,8.02
2023-04-16T15:49:37.546Z,8.18
2023-04-16T15:56:40.195Z,8.32
2023-04-16T16:03:43.203Z,8.57
2023-04-16T16:10:45.440Z,8.45
2023-04-16T16:17:48.148Z,8.43
2023-04-16T16:24:51.597Z,8.38
2023-04-16T16:31:53.817Z,9.85
2023-04-16T16:38:57.626Z,10.27
2023-04-16T16:46:01.197Z,10.98
2023-04-16T16:53:03.907Z,10.20
2023-04-16T17:00:15.882Z,10.15
2023-04-16T17:07:17.892Z,9.18
2023-04-16T17:14:20.208Z,8.65
2023-04-16T17:21:22.617Z,9.05
2023-04-16T17:28:26.022Z,8.63
2023-04-16T17:35:28.863Z,9.18
2023-04-16T17:42:31.561Z,10.43
2023-04-16T17:49:35.781Z,10.40
2023-04-16T17:56:38.638Z,10.70
2023-04-16T18:03:41.134Z,9.43
2023-04-16T18:10:43.117Z,9.00
2023-04-16T18:17:45.154Z,8.60
2023-04-16T18:24:50.096Z,7.97
2023-04-16T18:31:58.124Z,6.85
2023-04-16T18:39:02.766Z,8.43
2023-04-16T18:46:05.573Z,10.98
2023-04-16T18:53:08.167Z,11.38
2023-04-16T19:00:15.220Z,9.75
2023-04-16T19:07:18.823Z,9.73
2023-04-16T19:14:21.600Z,8.45
2023-04-16T19:21:25.245Z,8.25
2023-04-16T19:28:28.018Z,8.43
2023-04-16T19:35:33.739Z,8.48
2023-04-16T19:42:36.358Z,8.40
2023-04-16T19:49:42.408Z,9.40
2023-04-16T19:56:45.084Z,10.35
2023-04-16T20:03:49.309Z,10.60
2023-04-16T20:10:55.348Z,14.50
2023-04-16T20:18:00.157Z,11.00
2023-04-16T20:25:03.981Z,10.73
2023-04-16T20:32:08.486Z,12.10
2023-04-16T20:39:11.305Z,11.68
2023-04-16T20:46:13.949Z,10.98
2023-04-16T20:53:16.466Z,9.43
2023-04-16T21:00:18.396Z,8.27
2023-04-16T21:07:20.195Z,9.18
2023-04-16T21:14:21.974Z,8.70
2023-04-16T21:21:24.050Z,8.25
2023-04-16T21:28:25.867Z,8.18
2023-04-16T21:35:27.715Z,7.82
2023-04-16T21:42:29.598Z,8.05
2023-04-16T21:49:31.391Z,7.85
2023-04-16T21:56:33.168Z,7.85
2023-04-16T22:03:35.036Z,7.38
2023-04-16T22:10:38.208Z,8.10
2023-04-16T22:17:40.742Z,8.77
2023-04-16T22:24:42.604Z,8.32
2023-04-16T22:31:44.577Z,8.10
2023-04-16T22:38:46.933Z,9.15
2023-04-16T22:45:48.959Z,8.63
2023-04-16T22:52:50.921Z,8.52
2023-04-16T22:59:53.415Z,8.63
2023-04-16T23:06:55.370Z,8.10
2023-04-16T23:13:57.416Z,7.07
2023-04-16T23:20:59.187Z,8.95
2023-04-16T23:28:00.922Z,8.50
2023-04-16T23:35:02.876Z,8.60
2023-04-16T23:42:04.688Z,8.90
2023-04-16T23:49:06.625Z,8.38
2023-04-16T23:56:11.375Z,7.97
